createdAt,value
2018-08-18T00:02:13.792Z,5.90
2018-08-18T00:04:42.688Z,4.97
2018-08-18T00:07:11.468Z,5.80
2018-08-18T00:09:42.236Z,5.20
2018-08-18T00:12:20.369Z,5.83
2018-08-18T00:14:49.224Z,5.03
2018-08-18T00:17:32.480Z,6.23
2018-08-18T00:20:01.773Z,5.83
2018-08-18T00:22:34.196Z,5.57
2018-08-18T00:25:07.040Z,5.70
2018-08-18T00:27:45.324Z,6.00
2018-08-18T00:30:28.492Z,6.03
2018-08-18T00:32:58.255Z,5.63
2018-08-18T00:35:27.041Z,5.60
2018-08-18T00:38:02.400Z,5.80
2018-08-18T00:40:33.191Z,6.33
2018-08-18T00:43:03.960Z,5.60
2018-08-18T00:45:33.739Z,6.50
2018-08-18T00:48:04.580Z,6.27
2018-08-18T00:50:44.007Z,5.90
2018-08-18T00:53:14.895Z,6.50
2018-08-18T00:55:43.759Z,6.43
2018-08-18T00:58:18.101Z,5.60
2018-08-18T01:01:05.048Z,5.23
2018-08-18T01:03:42.359Z,6.00
2018-08-18T01:06:17.751Z,6.53
2018-08-18T01:08:59.669Z,6.50
2018-08-18T01:11:29.781Z,5.50
2018-08-18T01:14:02.378Z,6.67
2018-08-18T01:16:31.432Z,6.57
2018-08-18T01:19:01.192Z,6.30
2018-08-18T01:21:30.278Z,5.83
2018-08-18T01:24:08.651Z,6.00
2018-08-18T01:26:44.296Z,6.43
2018-08-18T01:29:23.204Z,6.60
2018-08-18T01:31:52.975Z,6.80
2018-08-18T01:34:26.392Z,7.40
2018-08-18T01:37:10.882Z,6.97
2018-08-18T01:39:58.039Z,6.73
2018-08-18T01:42:32.999Z,7.63
2018-08-18T01:45:12.652Z,6.77
2018-08-18T01:47:41.380Z,7.50
2018-08-18T01:50:17.431Z,7.70
2018-08-18T01:52:48.216Z,7.87
2018-08-18T01:55:20.271Z,7.33
2018-08-18T01:57:52.955Z,7.97
2018-08-18T02:00:25.016Z,7.57
2018-08-18T02:02:58.527Z,7.50
2018-08-18T02:05:27.304Z,7.70
2018-08-18T02:07:59.196Z,6.97
2018-08-18T02:10:39.459Z,7.00
2018-08-18T02:13:14.864Z,7.13
2018-08-18T02:15:49.608Z,7.47
2018-08-18T02:18:18.324Z,7.77
2018-08-18T02:20:50.147Z,7.77
2018-08-18T02:23:19.976Z,8.10
2018-08-18T02:25:49.780Z,8.17
2018-08-18T02:28:28.039Z,7.83
2018-08-18T02:31:01.816Z,8.47
2018-08-18T02:33:37.164Z,7.93
2018-08-18T02:36:09.779Z,7.97
2018-08-18T02:38:44.785Z,7.80
2018-08-18T02:41:13.608Z,7.13
2018-08-18T02:43:43.424Z,7.53
2018-08-18T02:46:19.251Z,7.73
2018-08-18T02:48:51.856Z,7.97
2018-08-18T02:51:26.420Z,7.60
2018-08-18T02:53:55.195Z,7.90
2018-08-18T02:56:36.145Z,9.20
2018-08-18T02:59:08.314Z,6.60
2018-08-18T03:01:45.824Z,8.30
2018-08-18T03:04:19.615Z,7.93
2018-08-18T03:06:50.460Z,7.07
2018-08-18T03:09:19.276Z,7.63
2018-08-18T03:11:48.124Z,7.00
2018-08-18T03:14:17.928Z,8.60
2018-08-18T03:16:52.136Z,7.27
2018-08-18T03:19:20.915Z,8.97
2018-08-18T03:21:53.419Z,8.37
2018-08-18T03:24:24.020Z,9.20
2018-08-18T03:26:55.792Z,9.40
2018-08-18T03:29:37.296Z,9.20
2018-08-18T03:32:07.120Z,8.90
2018-08-18T03:34:37.920Z,8.77
2018-08-18T03:37:25.967Z,10.50
2018-08-18T03:39:58.044Z,10.10
2018-08-18T03:42:33.303Z,9.47
2018-08-18T03:45:16.463Z,9.60
2018-08-18T03:47:46.212Z,10.07
2018-08-18T03:50:19.200Z,10.00
2018-08-18T03:52:49.031Z,9.93
2018-08-18T03:55:21.363Z,9.53
2018-08-18T03:57:50.175Z,9.77
2018-08-18T04:00:18.973Z,10.50
2018-08-18T04:02:49.825Z,11.60
2018-08-18T04:05:23.907Z,11.00
2018-08-18T04:07:52.703Z,9.97
2018-08-18T04:10:21.511Z,10.50
2018-08-18T04:12:57.650Z,11.33
2018-08-18T04:15:32.504Z,10.20
2018-08-18T04:18:08.419Z,10.53
2018-08-18T04:20:40.403Z,9.20
2018-08-18T04:23:12.267Z,9.37
2018-08-18T04:25:42.053Z,9.17
2018-08-18T04:28:21.332Z,8.90
2018-08-18T04:30:52.128Z,9.07
2018-08-18T04:33:25.635Z,8.67
2018-08-18T04:35:59.795Z,8.60
2018-08-18T04:38:32.415Z,9.10
2018-08-18T04:41:06.056Z,9.00
2018-08-18T04:43:46.886Z,9.17
2018-08-18T04:46:15.780Z,8.67
2018-08-18T04:48:47.649Z,7.80
2018-08-18T04:51:17.467Z,8.23
2018-08-18T04:53:46.236Z,8.30
2018-08-18T04:56:18.227Z,7.57
2018-08-18T04:58:46.990Z,8.00
2018-08-18T05:01:22.152Z,7.50
2018-08-18T05:04:04.367Z,7.80
2018-08-18T05:06:37.391Z,7.90
2018-08-18T05:09:08.103Z,8.10
2018-08-18T05:11:44.042Z,7.17
2018-08-18T05:14:20.219Z,7.47
2018-08-18T05:16:51.004Z,7.03
2018-08-18T05:19:21.928Z,7.07
2018-08-18T05:21:50.635Z,7.40
2018-08-18T05:24:24.924Z,7.60
2018-08-18T05:26:55.648Z,7.00
2018-08-18T05:29:29.705Z,7.23
2018-08-18T05:32:00.552Z,6.90
2018-08-18T05:34:31.336Z,7.30
2018-08-18T05:37:01.024Z,6.83
2018-08-18T05:39:29.943Z,6.80
2018-08-18T05:42:10.999Z,7.40
2018-08-18T05:44:43.592Z,7.23
2018-08-18T05:47:12.388Z,7.30
2018-08-18T05:49:41.188Z,7.03
2018-08-18T05:52:10.011Z,7.87
2018-08-18T05:54:38.744Z,7.43
2018-08-18T05:57:12.609Z,6.80
2018-08-18T05:59:41.428Z,7.23
2018-08-18T06:02:22.400Z,7.17
2018-08-18T06:04:52.228Z,6.60
2018-08-18T06:07:26.568Z,7.60
2018-08-18T06:09:56.391Z,7.83
2018-08-18T06:12:25.148Z,7.73
2018-08-18T06:14:57.112Z,7.10
2018-08-18T06:17:32.132Z,7.20
2018-08-18T06:20:06.635Z,7.40
2018-08-18T06:22:40.134Z,6.50
2018-08-18T06:25:09.256Z,7.20
2018-08-18T06:27:43.963Z,6.97
2018-08-18T06:30:13.759Z,7.60
2018-08-18T06:32:43.499Z,7.53
2018-08-18T06:35:18.788Z,7.50
2018-08-18T06:37:54.656Z,7.63
2018-08-18T06:40:24.423Z,7.70
2018-08-18T06:42:57.095Z,7.43
2018-08-18T06:45:29.110Z,6.80
2018-08-18T06:48:14.196Z,8.30
2018-08-18T06:50:43.007Z,8.30
2018-08-18T06:53:15.551Z,7.00
2018-08-18T06:55:44.387Z,7.57
2018-08-18T06:58:13.160Z,7.30
2018-08-18T07:00:45.647Z,7.33
2018-08-18T07:03:26.888Z,8.33
2018-08-18T07:05:55.826Z,7.77
2018-08-18T07:08:24.499Z,7.30
2018-08-18T07:10:54.311Z,7.47
2018-08-18T07:13:23.083Z,7.30
2018-08-18T07:15:51.871Z,7.47
2018-08-18T07:18:22.611Z,7.30
2018-08-18T07:21:08.979Z,8.77
2018-08-18T07:23:38.911Z,8.13
2018-08-18T07:26:07.733Z,7.13
2018-08-18T07:28:42.300Z,7.17
2018-08-18T07:31:18.043Z,7.10
2018-08-18T07:33:46.895Z,6.97
2018-08-18T07:36:19.152Z,7.33
2018-08-18T07:38:47.924Z,6.33
2018-08-18T07:41:21.619Z,6.90
2018-08-18T07:43:51.475Z,6.63
2018-08-18T07:46:20.254Z,5.20
2018-08-18T07:48:49.027Z,5.77
2018-08-18T07:51:21.911Z,5.50
2018-08-18T07:53:55.915Z,5.37
2018-08-18T07:56:26.659Z,4.90
2018-08-18T07:58:55.455Z,4.40
2018-08-18T08:01:24.231Z,4.97
2018-08-18T08:03:54.043Z,5.10
2018-08-18T08:06:22.827Z,4.03
2018-08-18T08:08:55.627Z,4.30
2018-08-18T08:11:25.459Z,4.57
2018-08-18T08:16:28.424Z,5.03
2018-08-18T08:18:57.211Z,4.60
2018-08-18T08:21:30.719Z,5.60
2018-08-18T08:23:59.535Z,5.10
2018-08-18T08:26:32.291Z,4.70
2018-08-18T08:29:12.664Z,5.57
2018-08-18T08:31:46.551Z,4.77
2018-08-18T08:34:20.823Z,5.80
2018-08-18T08:36:49.553Z,5.07
2018-08-18T08:39:26.691Z,5.43
2018-08-18T08:42:00.027Z,5.30
2018-08-18T08:44:40.158Z,4.87
2018-08-18T08:47:10.308Z,5.03
2018-08-18T08:49:43.579Z,4.80
2018-08-18T08:52:12.399Z,4.63
2018-08-18T08:54:46.831Z,4.87
2018-08-18T08:57:15.595Z,4.43
2018-08-18T08:59:52.407Z,5.00
2018-08-18T09:02:29.279Z,5.03
2018-08-18T09:04:58.987Z,5.50
2018-08-18T09:07:27.731Z,4.73
2018-08-18T09:09:56.583Z,4.70
2018-08-18T09:12:32.216Z,5.30
2018-08-18T09:15:01.979Z,4.97
2018-08-18T09:17:36.707Z,5.27
2018-08-18T09:20:14.895Z,5.37
2018-08-18T09:22:53.059Z,5.20
2018-08-18T09:25:27.187Z,4.70
2018-08-18T09:27:59.287Z,5.03
2018-08-18T09:30:31.162Z,4.23
2018-08-18T09:33:04.891Z,4.70
2018-08-18T09:35:53.075Z,4.60
2018-08-18T09:38:28.231Z,4.97
2018-08-18T09:41:02.959Z,4.60
2018-08-18T09:43:33.712Z,4.23
2018-08-18T09:46:06.351Z,4.50
2018-08-18T09:48:36.116Z,3.70
2018-08-18T09:51:04.883Z,4.00
2018-08-18T09:53:40.879Z,4.20
2018-08-18T09:56:16.187Z,3.60
2018-08-18T09:58:44.975Z,3.77
2018-08-18T10:01:16.832Z,3.67
2018-08-18T10:03:53.136Z,4.07
2018-08-18T10:06:21.930Z,3.57
2018-08-18T10:08:54.371Z,3.80
2018-08-18T10:11:28.281Z,4.40
2018-08-18T10:14:04.904Z,4.80
2018-08-18T10:16:33.735Z,4.90
2018-08-18T10:19:07.263Z,4.20
2018-08-18T10:21:36.939Z,4.90
2018-08-18T10:24:10.151Z,5.30
2018-08-18T10:26:45.690Z,5.37
2018-08-18T10:29:20.663Z,4.00
2018-08-18T10:31:56.227Z,4.93
2018-08-18T10:34:33.655Z,4.43
2018-08-18T10:37:16.927Z,3.90
2018-08-18T10:39:50.627Z,4.87
2018-08-18T10:42:25.563Z,4.90
2018-08-18T10:45:04.667Z,5.60
2018-08-18T10:47:34.471Z,4.47
2018-08-18T10:50:20.471Z,5.03
2018-08-18T10:52:57.706Z,4.60
2018-08-18T10:55:31.815Z,4.50
2018-08-18T10:58:06.228Z,4.13
2018-08-18T11:00:37.271Z,4.63
2018-08-18T11:03:09.459Z,4.37
2018-08-18T11:08:31.395Z,4.40
2018-08-18T11:11:03.700Z,4.20
2018-08-18T11:13:48.495Z,5.03
2018-08-18T11:16:22.744Z,4.30
2018-08-18T11:18:58.539Z,4.20
2018-08-18T11:21:31.571Z,4.20
2018-08-18T11:24:07.527Z,4.13
2018-08-18T11:26:39.079Z,4.17
2018-08-18T11:29:27.207Z,4.50
2018-08-18T11:31:56.067Z,4.50
2018-08-18T11:34:27.883Z,4.70
2018-08-18T11:37:06.078Z,4.37
2018-08-18T11:39:48.992Z,4.60
2018-08-18T11:42:21.508Z,4.57
2018-08-18T11:44:56.779Z,4.33
2018-08-18T11:47:25.532Z,5.00
2018-08-18T11:49:59.764Z,4.13
2018-08-18T11:52:30.051Z,4.73
2018-08-18T11:55:03.388Z,5.90
2018-08-18T11:57:32.215Z,5.83
2018-08-18T12:00:01.040Z,4.70
2018-08-18T12:02:32.895Z,4.20
2018-08-18T12:05:08.272Z,4.80
2018-08-18T12:07:40.719Z,4.53
2018-08-18T12:10:10.578Z,5.00
2018-08-18T12:12:39.407Z,4.60
2018-08-18T12:15:08.223Z,5.03
2018-08-18T12:17:52.679Z,4.53
2018-08-18T12:20:21.907Z,4.20
2018-08-18T12:22:53.395Z,4.50
2018-08-18T12:25:24.131Z,4.67
2018-08-18T12:27:54.887Z,4.37
2018-08-18T12:30:30.887Z,4.80
2018-08-18T12:33:04.458Z,4.57
2018-08-18T12:35:33.713Z,3.90
2018-08-18T12:38:03.463Z,4.50
2018-08-18T12:40:32.230Z,4.50
2018-08-18T12:43:07.110Z,3.83
2018-08-18T12:45:36.723Z,4.50
2018-08-18T12:48:09.260Z,4.40
2018-08-18T12:50:39.047Z,3.73
2018-08-18T12:53:07.818Z,4.07
2018-08-18T12:55:47.659Z,3.80
2018-08-18T12:58:18.478Z,4.10
2018-08-18T13:00:47.204Z,4.10
2018-08-18T13:03:21.182Z,3.90
2018-08-18T13:05:50.006Z,4.33
2018-08-18T13:08:30.938Z,4.50
2018-08-18T13:11:03.346Z,3.77
2018-08-18T13:13:32.139Z,4.20
2018-08-18T13:16:05.222Z,3.80
2018-08-18T13:18:34.060Z,3.50
2018-08-18T13:21:10.199Z,4.13
2018-08-18T13:23:55.415Z,4.20
2018-08-18T13:26:27.372Z,3.57
2018-08-18T13:29:03.644Z,3.40
2018-08-18T13:31:37.874Z,3.80
2018-08-18T13:34:19.022Z,3.30
2018-08-18T13:36:47.897Z,3.50
2018-08-18T13:39:18.879Z,3.50
2018-08-18T13:41:52.294Z,3.40
2018-08-18T13:44:29.311Z,4.03
2018-08-18T13:47:01.874Z,3.33
2018-08-18T13:49:30.639Z,3.80
2018-08-18T13:52:02.495Z,3.50
2018-08-18T13:54:32.699Z,3.63
2018-08-18T13:57:02.431Z,3.50
2018-08-18T13:59:38.915Z,3.87
2018-08-18T14:02:11.476Z,3.30
2018-08-18T14:04:52.199Z,3.27
2018-08-18T14:07:21.627Z,3.40
2018-08-18T14:09:56.839Z,3.20
2018-08-18T14:12:38.571Z,3.70
2018-08-18T14:15:10.435Z,3.60
2018-08-18T14:17:41.291Z,3.93
2018-08-18T14:20:10.043Z,3.70
2018-08-18T14:22:38.835Z,3.10
2018-08-18T14:25:10.695Z,3.60
2018-08-18T14:28:00.459Z,2.97
2018-08-18T14:30:30.287Z,3.17
2018-08-18T14:32:59.087Z,3.03
2018-08-18T14:35:31.874Z,3.50
2018-08-18T14:38:00.663Z,3.03
2018-08-18T14:40:30.451Z,3.83
2018-08-18T14:43:00.291Z,2.90
2018-08-18T14:45:29.055Z,3.70
2018-08-18T14:48:01.218Z,3.27
2018-08-18T14:50:33.626Z,3.20
2018-08-18T14:53:10.562Z,3.20
2018-08-18T14:55:44.483Z,3.33
2018-08-18T14:58:16.342Z,3.60
2018-08-18T15:00:45.150Z,3.40
2018-08-18T15:03:14.286Z,3.60
2018-08-18T15:05:43.145Z,3.47
2018-08-18T15:08:24.259Z,3.70
2018-08-18T15:10:53.098Z,3.07
2018-08-18T15:13:21.875Z,3.97
2018-08-18T15:15:52.597Z,3.77
2018-08-18T15:18:21.415Z,3.00
2018-08-18T15:20:50.198Z,3.47
2018-08-18T15:23:19.058Z,3.10
2018-08-18T15:25:49.803Z,2.90
2018-08-18T15:28:21.226Z,3.83
2018-08-18T15:30:53.386Z,4.13
2018-08-18T15:33:28.335Z,3.63
2018-08-18T15:35:57.154Z,4.10
2018-08-18T15:38:42.182Z,3.40
2018-08-18T15:41:28.066Z,3.40
2018-08-18T15:43:57.798Z,3.00
2018-08-18T15:46:28.549Z,3.43
2018-08-18T15:48:58.297Z,3.80
2018-08-18T15:51:31.749Z,2.93
2018-08-18T15:54:05.176Z,3.63
2018-08-18T15:56:35.434Z,3.63
2018-08-18T15:59:04.545Z,4.47
2018-08-18T16:01:35.293Z,2.97
2018-08-18T16:04:07.572Z,3.80
2018-08-18T16:06:37.401Z,2.97
2018-08-18T16:09:08.900Z,3.50
2018-08-18T16:11:37.728Z,3.63
2018-08-18T16:14:07.520Z,3.53
2018-08-18T16:16:55.349Z,4.13
2018-08-18T16:19:31.257Z,3.90
2018-08-18T16:22:05.560Z,3.73
2018-08-18T16:24:39.800Z,3.90
2018-08-18T16:27:09.560Z,3.90
2018-08-18T16:29:39.752Z,3.13
2018-08-18T16:32:26.774Z,3.77
2018-08-18T16:35:02.080Z,4.07
2018-08-18T16:37:34.193Z,4.23
2018-08-18T16:40:02.993Z,4.33
2018-08-18T16:42:32.450Z,4.00
2018-08-18T16:45:01.349Z,4.30
2018-08-18T16:47:31.298Z,4.20
2018-08-18T16:50:00.094Z,3.80
2018-08-18T16:52:30.850Z,4.60
2018-08-18T16:54:59.638Z,4.23
2018-08-18T16:57:29.414Z,4.30
2018-08-18T17:00:00.155Z,4.70
2018-08-18T17:02:35.578Z,4.10
2018-08-18T17:05:12.007Z,3.67
2018-08-18T17:07:43.398Z,4.30
2018-08-18T17:10:15.295Z,4.47
2018-08-18T17:12:47.117Z,3.90
2018-08-18T17:15:15.914Z,4.40
2018-08-18T17:17:44.818Z,4.20
2018-08-18T17:20:21.102Z,4.30
2018-08-18T17:22:53.449Z,4.80
2018-08-18T17:25:24.521Z,3.83
2018-08-18T17:28:01.606Z,3.70
2018-08-18T17:30:30.358Z,3.90
2018-08-18T17:33:12.022Z,4.70
2018-08-18T17:35:41.769Z,5.53
2018-08-18T17:38:23.022Z,4.97
2018-08-18T17:40:55.694Z,4.93
2018-08-18T17:43:25.430Z,3.83
2018-08-18T17:45:59.731Z,4.13
2018-08-18T17:48:34.781Z,4.50
2018-08-18T17:51:13.937Z,4.83
2018-08-18T17:53:54.345Z,4.90
2018-08-18T17:56:23.213Z,5.20
2018-08-18T17:58:53.037Z,4.13
2018-08-18T18:01:27.277Z,4.20
2018-08-18T18:04:03.178Z,4.50
2018-08-18T18:06:37.491Z,4.90
2018-08-18T18:12:05.034Z,5.03
2018-08-18T18:14:34.866Z,4.57
2018-08-18T18:17:11.050Z,4.40
2018-08-18T18:19:58.693Z,4.30
2018-08-18T18:22:39.365Z,4.57
2018-08-18T18:25:15.525Z,5.07
2018-08-18T18:27:44.377Z,4.53
2018-08-18T18:30:26.843Z,4.90
2018-08-18T18:33:12.533Z,5.10
2018-08-18T18:35:53.387Z,4.60
2018-08-18T18:38:29.629Z,4.43
2018-08-18T18:41:00.466Z,5.00
2018-08-18T18:43:29.221Z,5.93
2018-08-18T18:45:58.143Z,5.07
2018-08-18T18:48:31.198Z,4.90
2018-08-18T18:51:20.106Z,4.60
2018-08-18T18:53:51.201Z,4.90
2018-08-18T18:56:23.813Z,5.83
2018-08-18T18:58:52.557Z,5.00
2018-08-18T19:01:26.802Z,4.17
2018-08-18T19:04:03.802Z,5.23
2018-08-18T19:06:32.661Z,5.27
2018-08-18T19:09:05.626Z,6.00
2018-08-18T19:11:34.406Z,4.60
2018-08-18T19:14:03.227Z,5.20
2018-08-18T19:16:36.821Z,5.53
2018-08-18T19:19:05.642Z,4.63
2018-08-18T19:21:35.442Z,4.73
2018-08-18T19:24:15.738Z,5.17
2018-08-18T19:26:50.105Z,5.00
2018-08-18T19:29:29.614Z,5.27
2018-08-18T19:32:01.757Z,5.13
2018-08-18T19:34:30.667Z,5.67
2018-08-18T19:37:05.273Z,5.30
2018-08-18T19:39:35.942Z,5.10
2018-08-18T19:42:11.453Z,4.60
2018-08-18T19:44:44.541Z,4.77
2018-08-18T19:47:18.599Z,4.80
2018-08-18T19:49:53.037Z,5.23
2018-08-18T19:52:29.825Z,6.20
2018-08-18T19:54:58.666Z,5.00
2018-08-18T19:57:37.897Z,5.10
2018-08-18T20:00:21.302Z,5.43
2018-08-18T20:03:01.661Z,6.60
2018-08-18T20:05:35.064Z,6.13
2018-08-18T20:08:07.069Z,5.33
2018-08-18T20:10:51.937Z,4.90
2018-08-18T20:13:21.589Z,4.97
2018-08-18T20:15:54.781Z,5.63
2018-08-18T20:18:23.683Z,6.07
2018-08-18T20:20:57.961Z,5.70
2018-08-18T20:23:30.173Z,5.50
2018-08-18T20:26:03.874Z,5.20
2018-08-18T20:28:35.953Z,5.13
2018-08-18T20:31:18.629Z,6.90
2018-08-18T20:33:54.258Z,5.53
2018-08-18T20:36:25.033Z,5.73
2018-08-18T20:38:55.789Z,6.10
2018-08-18T20:41:25.606Z,5.83
2018-08-18T20:43:55.427Z,5.30
2018-08-18T20:46:24.201Z,7.40
2018-08-18T20:48:53.107Z,6.10
2018-08-18T20:51:27.257Z,7.40
2018-08-18T20:53:56.118Z,5.93
2018-08-18T20:56:30.601Z,6.23
2018-08-18T20:58:59.537Z,6.20
2018-08-18T21:01:36.834Z,5.87
2018-08-18T21:04:05.753Z,6.20
2018-08-18T21:06:37.484Z,6.80
2018-08-18T21:09:21.873Z,7.10
2018-08-18T21:12:05.386Z,6.43
2018-08-18T21:14:35.137Z,6.97
2018-08-18T21:17:10.397Z,6.60
2018-08-18T21:19:39.210Z,6.60
2018-08-18T21:22:10.710Z,7.67
2018-08-18T21:24:43.489Z,7.07
2018-08-18T21:27:17.701Z,6.63
2018-08-18T21:29:48.462Z,6.50
2018-08-18T21:32:17.297Z,6.10
2018-08-18T21:34:51.553Z,6.60
2018-08-18T21:37:25.197Z,6.67
2018-08-18T21:39:55.017Z,7.10
2018-08-18T21:42:23.893Z,6.03
2018-08-18T21:44:53.877Z,6.50
2018-08-18T21:47:30.214Z,6.30
2018-08-18T21:49:59.169Z,6.47
2018-08-18T21:52:28.994Z,6.70
2018-08-18T21:54:58.701Z,7.13
2018-08-18T21:57:37.665Z,6.97
2018-08-18T22:00:20.149Z,6.47
2018-08-18T22:02:50.941Z,7.17
2018-08-18T22:05:20.742Z,6.90
2018-08-18T22:07:51.115Z,8.50
2018-08-18T22:10:30.357Z,7.40
2018-08-18T22:12:59.242Z,6.90
2018-08-18T22:15:31.361Z,7.20
2018-08-18T22:18:06.941Z,6.63
2018-08-18T22:20:42.154Z,6.97
2018-08-18T22:23:23.102Z,7.30
2018-08-18T22:26:00.050Z,7.53
2018-08-18T22:28:28.894Z,7.53
2018-08-18T22:31:03.654Z,8.47
2018-08-18T22:33:37.658Z,7.47
2018-08-18T22:36:12.354Z,7.17
2018-08-18T22:38:55.321Z,7.37
2018-08-18T22:41:30.919Z,6.80
2018-08-18T22:44:01.097Z,8.00
2018-08-18T22:46:32.318Z,7.20
2018-08-18T22:49:03.278Z,12.90
2018-08-18T22:51:34.092Z,8.70
2018-08-18T22:54:05.065Z,8.93
2018-08-18T22:56:37.189Z,8.63
2018-08-18T22:59:07.678Z,8.67
2018-08-18T23:01:38.393Z,9.07
2018-08-18T23:04:23.283Z,8.17
2018-08-18T23:06:57.917Z,7.73
2018-08-18T23:09:38.833Z,9.00
2018-08-18T23:12:15.096Z,8.60
2018-08-18T23:14:50.976Z,8.50
2018-08-18T23:17:23.457Z,9.20
2018-08-18T23:19:58.905Z,9.80
2018-08-18T23:22:47.373Z,8.60
2018-08-18T23:25:20.142Z,8.60
2018-08-18T23:27:48.985Z,8.33
2018-08-18T23:30:25.106Z,9.00
2018-08-18T23:32:53.941Z,9.80
2018-08-18T23:35:26.661Z,8.90
2018-08-18T23:37:55.519Z,8.67
2018-08-18T23:40:29.089Z,9.50
2018-08-18T23:43:03.396Z,9.03
2018-08-18T23:45:39.085Z,9.70
2018-08-18T23:48:15.005Z,9.77
2018-08-18T23:50:44.549Z,10.20
2018-08-18T23:53:21.485Z,9.20
2018-08-18T23:56:05.049Z,10.50
2018-08-18T23:58:36.953Z,10.40
